Time;durP1;ratioP1;P1;durP2;ratioP2;P2;SDS_P1;SDS_P2;PMS_P1;PMS_P2;Temp;Humidity;BMP_temperature;BMP_pressure;BME280_temperature;BME280_humidity;BME280_pressure;Samples;Min_cycle;Max_cycle;Signal;HPM_P1;HPM_P2
2021/05/22 00:00:16;;;;;;;3.53;1.40;;;;;;;;;;5129385;27;20061;-80
2021/05/22 00:03:00;;;;;;;3.40;1.85;;;;;;;;;;5114537;27;20166;-79
2021/05/22 00:05:45;;;;;;;4.15;1.50;;;;;;;;;;5113872;27;20095;-80
2021/05/22 00:08:29;;;;;;;5.95;1.77;;;;;;;;;;5129123;27;20073;-80
2021/05/22 00:11:14;;;;;;;3.00;1.50;;;;;;;;;;5100123;27;20061;-79
2021/05/22 00:13:58;;;;;;;4.07;1.40;;;;;;;;;;5117570;27;20567;-79
2021/05/22 00:16:43;;;;;;;3.60;1.60;;;;;;;;;;5129262;27;20042;-78
2021/05/22 00:19:28;;;;;;;4.32;1.42;;;;;;;;;;5128276;27;20043;-81
2021/05/22 00:22:12;;;;;;;5.22;1.67;;;;;;;;;;5123920;27;20070;-82
2021/05/22 00:24:57;;;;;;;6.32;2.25;;;;;;;;;;5123618;27;20593;-81
2021/05/22 00:27:41;;;;;;;6.10;2.03;;;;;;;;;;5126885;27;20046;-79
2021/05/22 00:30:26;;;;;;;3.80;1.70;;;;;;;;;;5127491;27;20050;-80
2021/05/22 00:33:10;;;;;;;3.70;1.50;;;;;;;;;;5127263;27;20058;-80
2021/05/22 00:35:55;;;;;;;2.88;1.48;;;;;;;;;;5121763;27;20118;-79
2021/05/22 00:38:40;;;;;;;3.13;1.50;;;;;;;;;;5122813;27;20058;-80
2021/05/22 00:41:24;;;;;;;5.03;1.67;;;;;;;;;;5129011;27;20080;-80
2021/05/22 00:44:09;;;;;;;3.38;1.50;;;;;;;;;;5128700;27;20058;-79
2021/05/22 00:46:54;;;;;;;2.90;1.50;;;;;;;;;;5126703;27;20042;-81
2021/05/22 00:49:38;;;;;;;3.13;1.50;;;;;;;;;;5112545;27;20456;-81
2021/05/22 00:52:25;;;;;;;3.10;1.73;;;;;;;;;;5123350;27;20054;-81
2021/05/22 00:55:11;;;;;;;3.85;1.60;;;;;;;;;;5127121;27;20510;-81
2021/05/22 00:57:55;;;;;;;4.70;1.67;;;;;;;;;;5128516;27;20543;-81
2021/05/22 01:00:40;;;;;;;7.47;1.80;;;;;;;;;;5128497;27;20118;-80
2021/05/22 01:03:29;;;;;;;4.50;1.60;;;;;;;;;;5127898;27;20077;-80
2021/05/22 01:06:13;;;;;;;5.35;1.63;;;;;;;;;;5127714;27;20042;-81
2021/05/22 01:09:11;;;;;;;3.88;1.50;;;;;;;;;;5128792;27;20095;-81
2021/05/22 01:11:56;;;;;;;4.63;1.75;;;;;;;;;;5097501;27;20548;-81
2021/05/22 01:14:46;;;;;;;2.88;1.52;;;;;;;;;;5127167;27;20455;-81
2021/05/22 01:17:30;;;;;;;4.35;1.60;;;;;;;;;;5112897;27;20259;-79
2021/05/22 01:20:30;;;;;;;3.80;2.20;;;;;;;;;;5096931;27;20042;-80
2021/05/22 01:23:21;;;;;;;4.05;1.42;;;;;;;;;;5113260;27;20364;-81
2021/05/22 01:26:06;;;;;;;4.53;1.77;;;;;;;;;;5108573;28;20073;-78
2021/05/22 01:28:51;;;;;;;2.80;1.52;;;;;;;;;;5126253;27;20642;-80
2021/05/22 01:31:36;;;;;;;3.88;1.50;;;;;;;;;;5110905;27;20426;-80
2021/05/22 01:34:21;;;;;;;6.03;1.65;;;;;;;;;;5111687;27;20058;-80
2021/05/22 01:37:06;;;;;;;4.43;1.80;;;;;;;;;;5112432;27;20038;-80
2021/05/22 01:39:51;;;;;;;5.13;1.58;;;;;;;;;;5128512;27;20486;-77
2021/05/22 01:42:35;;;;;;;4.50;1.55;;;;;;;;;;5110937;27;20130;-80
2021/05/22 01:45:30;;;;;;;2.97;1.40;;;;;;;;;;5112728;27;20056;-80
2021/05/22 01:48:15;;;;;;;2.83;1.50;;;;;;;;;;5129868;27;20034;-80
2021/05/22 01:51:01;;;;;;;3.55;1.52;;;;;;;;;;5115641;27;20494;-80
2021/05/22 01:53:46;;;;;;;4.93;1.60;;;;;;;;;;5114302;27;20680;-80
2021/05/22 01:56:30;;;;;;;3.72;1.50;;;;;;;;;;5129260;27;20038;-80
2021/05/22 01:59:15;;;;;;;3.42;1.60;;;;;;;;;;5130418;27;20514;-80
2021/05/22 02:02:00;;;;;;;3.13;1.63;;;;;;;;;;5128063;27;20053;-81
2021/05/22 02:04:45;;;;;;;2.75;1.33;;;;;;;;;;5129407;27;20080;-80
2021/05/22 02:07:30;;;;;;;3.45;1.40;;;;;;;;;;5116230;27;20038;-80
2021/05/22 02:10:15;;;;;;;3.70;1.92;;;;;;;;;;5113948;27;20422;-80
2021/05/22 02:13:00;;;;;;;3.97;1.70;;;;;;;;;;5113820;27;20502;-80
2021/05/22 02:15:53;;;;;;;5.72;1.60;;;;;;;;;;5129833;27;20538;-80
2021/05/22 02:18:38;;;;;;;3.83;1.58;;;;;;;;;;5113677;27;20054;-81
2021/05/22 02:21:23;;;;;;;4.45;1.40;;;;;;;;;;5095418;27;20154;-81
2021/05/22 02:24:08;;;;;;;2.92;1.38;;;;;;;;;;5090950;27;20088;-80
2021/05/22 02:26:54;;;;;;;3.83;1.63;;;;;;;;;;5127988;27;20042;-80
2021/05/22 02:29:38;;;;;;;4.40;1.50;;;;;;;;;;5113315;27;20037;-80
2021/05/22 02:32:23;;;;;;;2.75;1.40;;;;;;;;;;5110938;27;20038;-80
2021/05/22 02:35:08;;;;;;;4.65;1.48;;;;;;;;;;5129208;27;20045;-80
2021/05/22 02:37:53;;;;;;;4.38;1.60;;;;;;;;;;5108444;27;20112;-81
2021/05/22 02:40:38;;;;;;;4.72;1.45;;;;;;;;;;5116095;27;20046;-81
2021/05/22 02:43:23;;;;;;;3.42;1.55;;;;;;;;;;5128783;27;20051;-81
2021/05/22 02:46:08;;;;;;;2.67;1.33;;;;;;;;;;5113373;27;20057;-80
2021/05/22 02:48:52;;;;;;;3.88;1.38;;;;;;;;;;5113044;28;20751;-80
2021/05/22 02:51:37;;;;;;;3.65;1.30;;;;;;;;;;5113066;27;20116;-80
2021/05/22 02:54:22;;;;;;;2.95;1.30;;;;;;;;;;5128688;27;20089;-80
2021/05/22 02:57:10;;;;;;;3.70;1.40;;;;;;;;;;5113536;28;20038;-81
2021/05/22 02:59:55;;;;;;;3.72;1.42;;;;;;;;;;5114055;28;20042;-80
2021/05/22 03:02:39;;;;;;;4.07;1.50;;;;;;;;;;5113089;28;20069;-80
2021/05/22 03:05:24;;;;;;;4.47;1.50;;;;;;;;;;5128535;28;20038;-80
2021/05/22 03:08:08;;;;;;;4.75;1.40;;;;;;;;;;5113480;28;20065;-79
2021/05/22 03:10:53;;;;;;;6.57;2.05;;;;;;;;;;5124400;28;20423;-80
2021/05/22 03:13:38;;;;;;;6.82;1.60;;;;;;;;;;5105335;27;20418;-80
2021/05/22 03:16:23;;;;;;;5.22;1.50;;;;;;;;;;5128249;27;20445;-80
2021/05/22 03:19:07;;;;;;;3.83;1.60;;;;;;;;;;5113767;28;20054;-80
2021/05/22 03:21:52;;;;;;;2.60;1.40;;;;;;;;;;5126942;28;20066;-80
2021/05/22 03:24:37;;;;;;;4.05;1.30;;;;;;;;;;5128612;28;20046;-80
2021/05/22 03:27:21;;;;;;;3.20;1.40;;;;;;;;;;5127940;28;20038;-80
2021/05/22 03:30:06;;;;;;;4.40;1.30;;;;;;;;;;5128072;27;20041;-79
2021/05/22 03:32:51;;;;;;;3.40;1.45;;;;;;;;;;5128197;28;20054;-80
2021/05/22 03:35:36;;;;;;;3.05;1.50;;;;;;;;;;5126726;28;20107;-80
2021/05/22 03:38:20;;;;;;;3.67;1.50;;;;;;;;;;5126754;28;20106;-80
2021/05/22 03:41:05;;;;;;;3.63;1.30;;;;;;;;;;5129012;28;20038;-80
2021/05/22 03:43:49;;;;;;;2.83;1.50;;;;;;;;;;5127495;28;20437;-81
2021/05/22 03:46:34;;;;;;;3.55;1.40;;;;;;;;;;5128237;28;20719;-80
2021/05/22 03:49:18;;;;;;;3.35;1.30;;;;;;;;;;5111021;28;20531;-80
2021/05/22 03:52:03;;;;;;;3.90;1.52;;;;;;;;;;5128991;28;20042;-80
2021/05/22 03:54:48;;;;;;;4.75;1.73;;;;;;;;;;5130168;27;20558;-80
2021/05/22 03:57:32;;;;;;;3.28;1.23;;;;;;;;;;5117257;27;20042;-80
2021/05/22 04:00:17;;;;;;;3.05;1.30;;;;;;;;;;5131541;27;20046;-80
2021/05/22 04:03:02;;;;;;;2.58;1.17;;;;;;;;;;5130870;27;20058;-80
2021/05/22 04:05:46;;;;;;;3.42;1.73;;;;;;;;;;5108646;27;20443;-81
2021/05/22 04:08:31;;;;;;;3.40;1.15;;;;;;;;;;5131642;27;20790;-80
2021/05/22 04:11:16;;;;;;;2.47;1.35;;;;;;;;;;5132815;27;20082;-80
2021/05/22 04:14:00;;;;;;;3.78;1.30;;;;;;;;;;5115674;27;20517;-81
2021/05/22 04:16:45;;;;;;;4.05;1.23;;;;;;;;;;5116608;27;20554;-81
2021/05/22 04:19:29;;;;;;;4.07;1.15;;;;;;;;;;5131694;27;20458;-80
2021/05/22 04:22:14;;;;;;;3.53;1.30;;;;;;;;;;5131450;27;20084;-81
2021/05/22 04:24:58;;;;;;;5.32;1.20;;;;;;;;;;5131508;27;20506;-81
2021/05/22 04:27:43;;;;;;;3.35;1.10;;;;;;;;;;5128326;27;20104;-81
2021/05/22 04:30:27;;;;;;;3.20;1.15;;;;;;;;;;5114480;27;20123;-80
2021/05/22 04:33:12;;;;;;;3.58;1.35;;;;;;;;;;5130049;27;20600;-81
2021/05/22 04:35:57;;;;;;;3.15;1.20;;;;;;;;;;5131504;27;20129;-81
2021/05/22 04:38:41;;;;;;;3.85;1.23;;;;;;;;;;5130995;27;20072;-79
2021/05/22 04:41:26;;;;;;;3.78;1.30;;;;;;;;;;5116589;27;20057;-80
2021/05/22 04:44:11;;;;;;;3.90;1.40;;;;;;;;;;5129637;27;20042;-80
2021/05/22 04:46:55;;;;;;;2.80;1.10;;;;;;;;;;5130979;27;20077;-81
2021/05/22 04:49:40;;;;;;;2.63;1.25;;;;;;;;;;5128633;27;20624;-80
2021/05/22 04:52:25;;;;;;;2.42;1.35;;;;;;;;;;5126614;27;20521;-81
2021/05/22 04:55:10;;;;;;;2.78;1.30;;;;;;;;;;5127802;27;20053;-80
2021/05/22 04:57:55;;;;;;;2.45;1.30;;;;;;;;;;5128669;27;20058;-80
2021/05/22 05:00:39;;;;;;;5.88;1.70;;;;;;;;;;5127665;27;20050;-80
2021/05/22 05:03:23;;;;;;;3.15;1.40;;;;;;;;;;5127605;27;20114;-80
2021/05/22 05:06:09;;;;;;;2.20;0.90;;;;;;;;;;5107742;27;20046;-80
2021/05/22 05:08:53;;;;;;;3.50;1.30;;;;;;;;;;5111530;27;20043;-80
2021/05/22 05:11:38;;;;;;;2.53;1.10;;;;;;;;;;5113420;27;20038;-81
2021/05/22 05:14:23;;;;;;;3.05;1.20;;;;;;;;;;5127957;27;20049;-80
2021/05/22 05:17:07;;;;;;;3.83;1.20;;;;;;;;;;5117647;27;20072;-80
2021/05/22 05:19:52;;;;;;;2.75;1.00;;;;;;;;;;5127508;27;20088;-80
2021/05/22 05:22:37;;;;;;;4.05;1.30;;;;;;;;;;5127727;27;20111;-80
2021/05/22 05:25:21;;;;;;;2.08;1.10;;;;;;;;;;5126917;27;20041;-80
2021/05/22 05:28:06;;;;;;;3.28;1.15;;;;;;;;;;5111875;27;20501;-81
2021/05/22 05:30:50;;;;;;;2.10;1.00;;;;;;;;;;5127391;27;20042;-80
2021/05/22 05:33:35;;;;;;;3.92;1.20;;;;;;;;;;5115433;27;20541;-79
2021/05/22 05:36:19;;;;;;;2.63;1.38;;;;;;;;;;5127346;27;20030;-81
2021/05/22 05:39:05;;;;;;;5.78;1.25;;;;;;;;;;5126193;27;20143;-81
2021/05/22 05:41:49;;;;;;;4.55;1.15;;;;;;;;;;5128772;27;20046;-80
2021/05/22 05:44:34;;;;;;;2.97;1.17;;;;;;;;;;5126991;27;20042;-80
2021/05/22 05:47:18;;;;;;;2.83;1.10;;;;;;;;;;5122373;27;20529;-80
2021/05/22 05:50:03;;;;;;;3.60;1.17;;;;;;;;;;5127776;27;20084;-81
2021/05/22 05:52:48;;;;;;;3.03;1.10;;;;;;;;;;5126875;27;20556;-80
2021/05/22 05:55:33;;;;;;;2.35;1.00;;;;;;;;;;5126028;27;20076;-81
2021/05/22 05:58:17;;;;;;;1.83;1.00;;;;;;;;;;5127940;27;20118;-81
2021/05/22 06:01:06;;;;;;;4.13;1.10;;;;;;;;;;5125973;27;20523;-80
2021/05/22 06:03:51;;;;;;;4.57;1.10;;;;;;;;;;5126901;27;20119;-80
2021/05/22 06:06:36;;;;;;;3.38;0.90;;;;;;;;;;5092047;28;20030;-81
2021/05/22 06:09:21;;;;;;;3.22;1.02;;;;;;;;;;5124789;27;20033;-81
2021/05/22 06:12:05;;;;;;;4.13;1.20;;;;;;;;;;5127825;27;20034;-80
2021/05/22 06:14:53;;;;;;;2.35;1.10;;;;;;;;;;5111827;27;20046;-81
2021/05/22 06:17:38;;;;;;;3.75;1.15;;;;;;;;;;5125732;27;20042;-80
2021/05/22 06:20:22;;;;;;;2.55;0.95;;;;;;;;;;5122711;27;20050;-77
2021/05/22 06:23:07;;;;;;;3.22;1.30;;;;;;;;;;5126439;27;20118;-81
2021/05/22 06:25:52;;;;;;;2.65;1.20;;;;;;;;;;5110798;27;20612;-81
2021/05/22 06:28:36;;;;;;;2.92;1.38;;;;;;;;;;5127382;27;20034;-80
2021/05/22 06:31:21;;;;;;;2.95;1.10;;;;;;;;;;5125440;27;20052;-80
2021/05/22 06:34:06;;;;;;;2.30;1.10;;;;;;;;;;5126281;27;20501;-77
2021/05/22 06:36:51;;;;;;;3.50;1.00;;;;;;;;;;5126761;27;20399;-81
2021/05/22 06:39:35;;;;;;;2.63;0.90;;;;;;;;;;5125645;27;20476;-80
2021/05/22 06:42:20;;;;;;;2.30;1.05;;;;;;;;;;5125956;27;20083;-80
2021/05/22 06:45:11;;;;;;;2.97;1.33;;;;;;;;;;5111189;27;20066;-81
2021/05/22 06:47:56;;;;;;;3.15;1.20;;;;;;;;;;5126626;27;20034;-80
2021/05/22 06:50:41;;;;;;;2.60;1.10;;;;;;;;;;5126172;27;20038;-81
2021/05/22 06:53:26;;;;;;;3.20;1.20;;;;;;;;;;5125607;27;20049;-81
2021/05/22 06:56:10;;;;;;;1.75;0.90;;;;;;;;;;5126586;27;20034;-80
2021/05/22 06:58:55;;;;;;;3.42;1.00;;;;;;;;;;5126018;28;20689;-80
2021/05/22 07:01:39;;;;;;;4.05;1.20;;;;;;;;;;5125667;28;20092;-80
2021/05/22 07:04:24;;;;;;;2.42;0.90;;;;;;;;;;5125918;28;20034;-80
2021/05/22 07:07:08;;;;;;;1.65;0.90;;;;;;;;;;5124014;27;20133;-79
2021/05/22 07:09:53;;;;;;;3.63;1.17;;;;;;;;;;5125656;28;20042;-79
2021/05/22 07:12:37;;;;;;;2.35;1.20;;;;;;;;;;5126819;28;20144;-79
2021/05/22 07:15:22;;;;;;;1.65;0.90;;;;;;;;;;5124388;28;20535;-80
2021/05/22 07:18:07;;;;;;;1.65;0.88;;;;;;;;;;5106617;28;20042;-80
2021/05/22 07:20:51;;;;;;;2.53;0.98;;;;;;;;;;5125056;28;20081;-81
2021/05/22 07:23:36;;;;;;;3.42;1.20;;;;;;;;;;5124951;27;20119;-81
2021/05/22 07:26:21;;;;;;;4.30;1.52;;;;;;;;;;5127173;28;20080;-79
2021/05/22 07:29:05;;;;;;;3.42;1.10;;;;;;;;;;5125805;27;20038;-80
2021/05/22 07:31:51;;;;;;;3.08;0.93;;;;;;;;;;5115030;27;20038;-80
2021/05/22 07:34:36;;;;;;;4.72;1.00;;;;;;;;;;5127787;27;20072;-81
2021/05/22 07:37:20;;;;;;;1.83;0.90;;;;;;;;;;5129902;27;20532;-81
2021/05/22 07:40:05;;;;;;;2.50;1.20;;;;;;;;;;5130297;27;20050;-77
2021/05/22 07:42:50;;;;;;;2.85;1.23;;;;;;;;;;5129819;27;20048;-80
2021/05/22 07:45:35;;;;;;;3.67;1.10;;;;;;;;;;5128884;27;20046;-81
2021/05/22 07:48:20;;;;;;;1.73;1.00;;;;;;;;;;5114047;27;20054;-76
2021/05/22 07:51:04;;;;;;;2.15;0.98;;;;;;;;;;5130070;27;20104;-80
2021/05/22 07:53:49;;;;;;;3.00;1.23;;;;;;;;;;5113761;27;20050;-79
2021/05/22 07:56:34;;;;;;;1.38;0.80;;;;;;;;;;5113832;27;20084;-78
2021/05/22 07:59:18;;;;;;;3.13;1.10;;;;;;;;;;5130526;27;20105;-79
2021/05/22 08:02:03;;;;;;;2.20;1.00;;;;;;;;;;5129160;27;20438;-80
2021/05/22 08:04:48;;;;;;;2.47;1.00;;;;;;;;;;5128937;27;20376;-79
2021/05/22 08:07:34;;;;;;;4.10;1.10;;;;;;;;;;5113481;27;20187;-78
2021/05/22 08:10:18;;;;;;;1.80;1.02;;;;;;;;;;5124043;27;20529;-80
2021/05/22 08:13:05;;;;;;;1.77;1.05;;;;;;;;;;5130046;27;20068;-80
2021/05/22 08:15:50;;;;;;;3.35;1.10;;;;;;;;;;5127241;27;20080;-80
2021/05/22 08:18:34;;;;;;;3.22;0.95;;;;;;;;;;5128019;27;20572;-80
2021/05/22 08:21:22;;;;;;;3.60;1.42;;;;;;;;;;5129936;27;20478;-80
2021/05/22 08:24:07;;;;;;;2.15;1.00;;;;;;;;;;5128196;27;20042;-78
2021/05/22 08:26:52;;;;;;;2.60;1.05;;;;;;;;;;5102768;27;20037;-80
2021/05/22 08:29:37;;;;;;;3.83;1.05;;;;;;;;;;5113172;27;20050;-80
2021/05/22 08:32:21;;;;;;;2.67;1.05;;;;;;;;;;5117038;27;20038;-80
2021/05/22 08:35:06;;;;;;;2.25;0.90;;;;;;;;;;5128621;27;20084;-80
2021/05/22 08:37:51;;;;;;;2.30;0.85;;;;;;;;;;5127869;27;20042;-80
2021/05/22 08:40:35;;;;;;;3.10;1.05;;;;;;;;;;5129460;27;20037;-81
2021/05/22 08:43:20;;;;;;;1.80;0.98;;;;;;;;;;5126870;27;20488;-80
2021/05/22 08:46:08;;;;;;;1.83;1.00;;;;;;;;;;5105454;28;20042;-81
2021/05/22 08:48:53;;;;;;;1.65;0.98;;;;;;;;;;5109531;27;20093;-80
2021/05/22 08:51:37;;;;;;;3.85;1.13;;;;;;;;;;5113134;27;20109;-80
2021/05/22 08:54:22;;;;;;;1.95;0.98;;;;;;;;;;5113268;27;20085;-80
2021/05/22 08:57:07;;;;;;;2.38;0.93;;;;;;;;;;5115926;27;20174;-80
2021/05/22 08:59:52;;;;;;;3.45;1.00;;;;;;;;;;5127970;27;20050;-80
2021/05/22 09:02:36;;;;;;;2.13;0.90;;;;;;;;;;5128651;27;20045;-80
2021/05/22 09:05:24;;;;;;;1.98;1.00;;;;;;;;;;5128506;27;20399;-80
2021/05/22 09:08:14;;;;;;;1.55;0.95;;;;;;;;;;5127626;27;20352;-79
2021/05/22 09:11:01;;;;;;;2.55;0.90;;;;;;;;;;5128917;27;20041;-76
2021/05/22 09:13:46;;;;;;;1.73;0.90;;;;;;;;;;5113863;27;20070;-78
2021/05/22 09:16:36;;;;;;;3.95;1.10;;;;;;;;;;5112677;27;20042;-80
2021/05/22 09:19:27;;;;;;;2.55;1.00;;;;;;;;;;5127770;27;20092;-80
2021/05/22 09:22:23;;;;;;;1.40;0.90;;;;;;;;;;5127432;27;20119;-80
2021/05/22 09:25:09;;;;;;;1.33;1.05;;;;;;;;;;5126863;27;20058;-81
2021/05/22 09:27:55;;;;;;;1.50;0.90;;;;;;;;;;5125843;27;20183;-80
2021/05/22 09:30:40;;;;;;;2.65;0.90;;;;;;;;;;5117623;27;20065;-81
2021/05/22 09:33:25;;;;;;;1.67;1.00;;;;;;;;;;5127432;27;20104;-81
2021/05/22 09:36:12;;;;;;;1.77;0.80;;;;;;;;;;5111878;27;20045;-80
2021/05/22 09:38:57;;;;;;;2.42;1.00;;;;;;;;;;5127115;27;20054;-80
2021/05/22 09:41:41;;;;;;;2.65;1.00;;;;;;;;;;5108373;28;20046;-81
2021/05/22 09:44:26;;;;;;;2.63;1.20;;;;;;;;;;5125841;27;20042;-80
2021/05/22 09:47:11;;;;;;;1.13;0.70;;;;;;;;;;5123736;27;20056;-80
2021/05/22 09:49:55;;;;;;;1.88;1.15;;;;;;;;;;5128105;27;20041;-79
2021/05/22 09:52:40;;;;;;;1.55;0.85;;;;;;;;;;5125345;27;20522;-80
2021/05/22 09:55:24;;;;;;;1.85;1.00;;;;;;;;;;5126142;27;20046;-80
2021/05/22 09:58:09;;;;;;;2.00;1.00;;;;;;;;;;5125946;27;20111;-81
2021/05/22 10:00:57;;;;;;;1.27;0.95;;;;;;;;;;5109676;27;20088;-80
2021/05/22 10:03:42;;;;;;;1.60;0.80;;;;;;;;;;5126043;27;20411;-77
2021/05/22 10:06:47;;;;;;;1.65;1.00;;;;;;;;;;5126533;27;20050;-80
2021/05/22 10:09:38;;;;;;;1.30;0.80;;;;;;;;;;5123967;27;20513;-79
2021/05/22 10:12:22;;;;;;;1.48;0.90;;;;;;;;;;5122389;27;21020;-80
2021/05/22 10:15:08;;;;;;;3.10;1.33;;;;;;;;;;5109688;27;20531;-81
2021/05/22 10:17:52;;;;;;;1.95;0.88;;;;;;;;;;5125278;27;20047;-80
2021/05/22 10:20:37;;;;;;;1.52;0.90;;;;;;;;;;5119344;27;20105;-80
2021/05/22 10:23:22;;;;;;;1.08;0.80;;;;;;;;;;5112663;27;20081;-76
2021/05/22 10:26:07;;;;;;;2.60;1.00;;;;;;;;;;5113904;27;20084;-78
2021/05/22 10:28:52;;;;;;;1.05;0.93;;;;;;;;;;5113544;27;20076;-79
2021/05/22 10:31:40;;;;;;;2.13;0.80;;;;;;;;;;5112175;27;20059;-78
2021/05/22 10:34:25;;;;;;;1.67;0.93;;;;;;;;;;5113621;27;20049;-80
2021/05/22 10:37:10;;;;;;;1.95;0.95;;;;;;;;;;5111517;27;20448;-79
2021/05/22 10:39:54;;;;;;;1.50;0.80;;;;;;;;;;5110959;27;20096;-79
2021/05/22 10:42:39;;;;;;;1.77;1.00;;;;;;;;;;5116909;27;20106;-80
2021/05/22 10:45:31;;;;;;;2.55;0.85;;;;;;;;;;5126881;27;20042;-79
2021/05/22 10:48:15;;;;;;;;;;;;;;;;;;5127549;27;20042;-80
2021/05/22 10:51:00;;;;;;;1.85;0.82;;;;;;;;;;5118486;27;19915;-80
2021/05/22 10:53:45;;;;;;;1.58;0.85;;;;;;;;;;5109272;28;20131;-80
2021/05/22 10:56:30;;;;;;;2.10;0.88;;;;;;;;;;5108212;28;20038;-79
2021/05/22 10:59:15;;;;;;;1.45;0.95;;;;;;;;;;5117915;28;20702;-79
2021/05/22 11:02:00;;;;;;;1.58;0.80;;;;;;;;;;5104587;28;20510;-79
2021/05/22 11:04:45;;;;;;;1.40;0.90;;;;;;;;;;5113363;27;20156;-78
2021/05/22 11:07:29;;;;;;;1.33;0.85;;;;;;;;;;5124978;27;20042;-78
2021/05/22 11:10:34;;;;;;;1.60;0.80;;;;;;;;;;5131672;27;20042;-80
2021/05/22 11:13:22;;;;;;;1.23;0.70;;;;;;;;;;5120609;27;20074;-80
2021/05/22 11:16:07;;;;;;;1.23;0.95;;;;;;;;;;5117404;27;20128;-79
2021/05/22 11:19:01;;;;;;;2.53;1.02;;;;;;;;;;5120165;27;20046;-80
2021/05/22 11:21:46;;;;;;;2.58;0.90;;;;;;;;;;5116498;27;20821;-80
2021/05/22 11:24:31;;;;;;;2.13;0.90;;;;;;;;;;5114100;27;20041;-80
2021/05/22 11:27:16;;;;;;;2.33;0.90;;;;;;;;;;5095581;28;20101;-79
2021/05/22 11:30:02;;;;;;;2.38;1.20;;;;;;;;;;5124820;27;20038;-79
2021/05/22 11:32:57;;;;;;;3.72;0.80;;;;;;;;;;5130446;27;20046;-79
2021/05/22 11:35:50;;;;;;;1.35;0.90;;;;;;;;;;5129991;27;20395;-79
2021/05/22 11:38:36;;;;;;;2.55;1.00;;;;;;;;;;5130787;27;20497;-79
2021/05/22 11:41:28;;;;;;;2.25;1.45;;;;;;;;;;5115857;27;20034;-80
2021/05/22 11:44:13;;;;;;;2.28;1.00;;;;;;;;;;5099037;27;20547;-79
2021/05/22 11:46:57;;;;;;;1.67;0.80;;;;;;;;;;5120334;27;20038;-79
2021/05/22 11:49:42;;;;;;;1.00;0.80;;;;;;;;;;5113671;27;20049;-79
2021/05/22 11:52:30;;;;;;;2.03;0.80;;;;;;;;;;5130929;27;20081;-80
2021/05/22 11:55:20;;;;;;;1.35;0.85;;;;;;;;;;5112918;27;20042;-80
2021/05/22 11:58:05;;;;;;;1.67;0.90;;;;;;;;;;5128746;27;20497;-77
2021/05/22 12:00:50;;;;;;;1.85;0.80;;;;;;;;;;5128679;27;20053;-79
2021/05/22 12:03:36;;;;;;;1.85;0.90;;;;;;;;;;5128423;27;20064;-79
2021/05/22 12:06:31;;;;;;;2.42;1.00;;;;;;;;;;5114920;27;20076;-79
2021/05/22 12:09:22;;;;;;;2.05;0.90;;;;;;;;;;5113945;27;20156;-79
2021/05/22 12:12:09;;;;;;;3.38;0.95;;;;;;;;;;5114042;27;20060;-79
2021/05/22 12:14:54;;;;;;;2.20;0.90;;;;;;;;;;5129452;27;20046;-79
2021/05/22 12:17:44;;;;;;;1.88;0.75;;;;;;;;;;5128770;27;20069;-78
2021/05/22 12:20:29;;;;;;;1.65;0.90;;;;;;;;;;5122519;27;20070;-79
2021/05/22 12:23:29;;;;;;;1.63;1.00;;;;;;;;;;5129401;27;20505;-78
2021/05/22 12:26:14;;;;;;;1.30;1.00;;;;;;;;;;5099405;27;20521;-79
2021/05/22 12:28:59;;;;;;;1.98;0.82;;;;;;;;;;5128972;27;20034;-78
2021/05/22 12:31:48;;;;;;;1.75;0.70;;;;;;;;;;5128230;27;20050;-78
2021/05/22 12:34:36;;;;;;;1.52;0.70;;;;;;;;;;5127901;27;20139;-77
2021/05/22 12:37:21;;;;;;;2.88;1.17;;;;;;;;;;5108842;27;20034;-78
2021/05/22 12:40:07;;;;;;;3.50;1.00;;;;;;;;;;5088433;27;20073;-81
2021/05/22 12:42:52;;;;;;;1.50;0.82;;;;;;;;;;5112945;27;20108;-78
2021/05/22 12:45:37;;;;;;;1.00;0.80;;;;;;;;;;5105482;27;20111;-79
2021/05/22 12:48:22;;;;;;;1.90;1.00;;;;;;;;;;5099491;27;20037;-76
2021/05/22 12:51:18;;;;;;;2.33;1.08;;;;;;;;;;5113725;27;20684;-77
2021/05/22 12:54:21;;;;;;;1.70;0.90;;;;;;;;;;5127384;27;20461;-76
2021/05/22 12:57:11;;;;;;;2.10;0.98;;;;;;;;;;5108571;28;20163;-77
2021/05/22 12:59:56;;;;;;;1.67;0.90;;;;;;;;;;5113380;27;20344;-77
2021/05/22 13:03:01;;;;;;;1.95;0.90;;;;;;;;;;5128935;27;20489;-77
2021/05/22 13:05:48;;;;;;;1.13;0.80;;;;;;;;;;5127555;27;20042;-78
2021/05/22 13:08:32;;;;;;;1.60;0.90;;;;;;;;;;5096742;27;20038;-78
2021/05/22 13:11:17;;;;;;;2.08;1.00;;;;;;;;;;5098914;27;20484;-77
2021/05/22 13:14:02;;;;;;;1.63;1.23;;;;;;;;;;5099128;27;20045;-78
2021/05/22 13:16:56;;;;;;;2.00;1.00;;;;;;;;;;5111650;27;20092;-78
2021/05/22 13:19:45;;;;;;;1.25;0.90;;;;;;;;;;5113428;27;20407;-78
2021/05/22 13:22:31;;;;;;;1.88;1.30;;;;;;;;;;5111911;27;20632;-77
2021/05/22 13:25:17;;;;;;;3.00;1.10;;;;;;;;;;5112369;27;20041;-79
2021/05/22 13:28:02;;;;;;;2.58;1.10;;;;;;;;;;5105673;27;20045;-77
2021/05/22 13:30:47;;;;;;;2.67;0.82;;;;;;;;;;5127246;27;20046;-78
2021/05/22 13:33:53;;;;;;;1.95;1.00;;;;;;;;;;5111627;27;20596;-79
2021/05/22 13:36:38;;;;;;;1.83;0.90;;;;;;;;;;5111903;27;20087;-78
2021/05/22 13:39:24;;;;;;;2.65;1.00;;;;;;;;;;5118807;27;20045;-78
2021/05/22 13:42:09;;;;;;;2.13;0.98;;;;;;;;;;5127067;27;20038;-79
2021/05/22 13:44:54;;;;;;;1.45;0.90;;;;;;;;;;5113030;27;20042;-79
2021/05/22 13:47:39;;;;;;;1.17;1.00;;;;;;;;;;5128185;27;20037;-80
2021/05/22 13:50:23;;;;;;;2.20;1.17;;;;;;;;;;5128436;27;20042;-79
2021/05/22 13:53:08;;;;;;;1.85;1.00;;;;;;;;;;5127569;27;20126;-79
2021/05/22 13:55:52;;;;;;;2.95;1.00;;;;;;;;;;5125541;27;20038;-79
2021/05/22 13:58:37;;;;;;;2.13;1.15;;;;;;;;;;5118942;27;20046;-78
2021/05/22 14:01:23;;;;;;;1.60;0.93;;;;;;;;;;5112675;27;20096;-78
2021/05/22 14:04:08;;;;;;;1.20;1.00;;;;;;;;;;5111809;27;20053;-78
2021/05/22 14:06:54;;;;;;;1.88;1.00;;;;;;;;;;5111497;27;20069;-78
2021/05/22 14:09:39;;;;;;;1.90;1.10;;;;;;;;;;5111256;27;20134;-77
2021/05/22 14:12:23;;;;;;;1.25;0.93;;;;;;;;;;5126897;27;20107;-78
2021/05/22 14:15:08;;;;;;;1.30;0.90;;;;;;;;;;5086194;27;20149;-86
2021/05/22 14:17:55;;;;;;;3.83;1.10;;;;;;;;;;5094627;28;20043;-80
2021/05/22 14:20:39;;;;;;;3.00;1.20;;;;;;;;;;5104952;28;20100;-82
2021/05/22 14:23:24;;;;;;;3.60;0.90;;;;;;;;;;5083587;28;20033;-86
2021/05/22 14:26:09;;;;;;;8.82;1.30;;;;;;;;;;5076838;28;20042;-82
2021/05/22 14:28:54;;;;;;;3.28;1.23;;;;;;;;;;5102396;27;20043;-79
2021/05/22 14:31:39;;;;;;;2.10;1.00;;;;;;;;;;5107181;28;20507;-76
2021/05/22 14:34:24;;;;;;;5.05;1.30;;;;;;;;;;5077448;28;20062;-79
2021/05/22 14:37:08;;;;;;;3.95;1.27;;;;;;;;;;5075470;28;20026;-77
2021/05/22 14:39:53;;;;;;;4.18;1.30;;;;;;;;;;5109392;28;20042;-80
2021/05/22 14:42:38;;;;;;;5.38;1.20;;;;;;;;;;5109968;28;20030;-80
2021/05/22 14:45:22;;;;;;;3.63;1.38;;;;;;;;;;5113052;27;20498;-82
2021/05/22 14:48:07;;;;;;;4.10;1.27;;;;;;;;;;5122590;27;20046;-80
2021/05/22 14:50:52;;;;;;;4.13;1.20;;;;;;;;;;5094180;28;20446;-77
2021/05/22 14:53:37;;;;;;;2.97;1.13;;;;;;;;;;5073136;28;20085;-79
2021/05/22 14:56:21;;;;;;;5.18;1.35;;;;;;;;;;5076856;28;20067;-81
2021/05/22 14:59:06;;;;;;;4.80;1.50;;;;;;;;;;5108273;28;20058;-79
2021/05/22 15:01:50;;;;;;;4.07;1.40;;;;;;;;;;5099152;28;20046;-76
2021/05/22 15:04:35;;;;;;;4.13;1.10;;;;;;;;;;5090535;28;20073;-77
2021/05/22 15:07:20;;;;;;;5.43;1.50;;;;;;;;;;5106830;28;20071;-80
2021/05/22 15:10:04;;;;;;;1.60;1.10;;;;;;;;;;5060773;22;20153;-82
2021/05/22 15:12:50;;;;;;;3.00;1.30;;;;;;;;;;5029838;28;20039;-80
2021/05/22 15:15:35;;;;;;;1.90;1.02;;;;;;;;;;5046957;28;20132;-82
2021/05/22 15:18:19;;;;;;;2.67;1.10;;;;;;;;;;5019526;28;20063;-81
2021/05/22 15:21:04;;;;;;;2.05;1.05;;;;;;;;;;5017073;28;20048;-82
2021/05/22 15:23:49;;;;;;;2.63;1.20;;;;;;;;;;5011014;28;20037;-81
2021/05/22 15:26:33;;;;;;;2.10;1.05;;;;;;;;;;5025362;28;20044;-81
2021/05/22 15:29:18;;;;;;;3.45;1.20;;;;;;;;;;5039169;28;20044;-79
2021/05/22 15:32:03;;;;;;;14.25;1.48;;;;;;;;;;5030991;28;20116;-76
2021/05/22 15:34:48;;;;;;;2.15;1.00;;;;;;;;;;5019234;28;20051;-75
2021/05/22 15:37:32;;;;;;;10.50;1.73;;;;;;;;;;5045113;28;20061;-76
2021/05/22 15:40:17;;;;;;;3.17;1.10;;;;;;;;;;5028410;28;20099;-76
2021/05/22 15:43:02;;;;;;;2.17;1.00;;;;;;;;;;5042603;28;20052;-76
2021/05/22 15:45:49;;;;;;;2.53;1.10;;;;;;;;;;5030722;28;20048;-75
2021/05/22 16:00:14;;;;;;;3.83;1.27;;;;;;;;;;5023876;28;20508;-77
2021/05/22 16:06:02;;;;;;;1.95;1.10;;;;;;;;;;5049662;28;20767;-76
2021/05/22 16:08:47;;;;;;;3.55;1.00;;;;;;;;;;5048811;28;20060;-75
2021/05/22 16:11:32;;;;;;;1.50;0.82;;;;;;;;;;5020300;28;20040;-77
2021/05/22 16:14:16;;;;;;;3.55;1.00;;;;;;;;;;5047935;28;20055;-76
2021/05/22 16:17:01;;;;;;;1.20;1.08;;;;;;;;;;5032629;28;20623;-78
2021/05/22 16:19:45;;;;;;;3.35;1.00;;;;;;;;;;5048603;28;20079;-77
2021/05/22 16:22:30;;;;;;;2.40;0.90;;;;;;;;;;5048130;28;20121;-77
2021/05/22 16:25:15;;;;;;;1.42;0.85;;;;;;;;;;5047193;28;20055;-78
2021/05/22 16:27:59;;;;;;;3.15;1.00;;;;;;;;;;5038119;28;20536;-78
2021/05/22 16:30:44;;;;;;;3.15;1.13;;;;;;;;;;5031680;28;20080;-78
2021/05/22 16:33:29;;;;;;;1.88;0.93;;;;;;;;;;5033444;28;20536;-77
2021/05/22 16:36:13;;;;;;;2.72;1.00;;;;;;;;;;5045230;28;20051;-77
2021/05/22 16:38:58;;;;;;;1.70;0.90;;;;;;;;;;5028823;28;20044;-77
2021/05/22 16:41:44;;;;;;;1.55;1.10;;;;;;;;;;5045313;28;20545;-79
2021/05/22 16:44:29;;;;;;;3.33;1.20;;;;;;;;;;5057367;28;20432;-77
2021/05/22 16:47:13;;;;;;;1.98;1.02;;;;;;;;;;5033008;28;20167;-78